createdAt,value
2023-03-18T00:01:13.758Z,9.43
2023-03-18T00:03:40.994Z,9.07
2023-03-18T00:06:17.047Z,9.18
2023-03-18T00:08:46.512Z,10.30
2023-03-18T00:11:15.993Z,13.02
2023-03-18T00:13:43.911Z,13.48
2023-03-18T00:16:12.830Z,11.77
2023-03-18T00:18:40.760Z,10.68
2023-03-18T00:21:10.026Z,9.43
2023-03-18T00:23:38.887Z,11.25
2023-03-18T00:26:09.203Z,10.82
2023-03-18T00:28:38.444Z,13.48
2023-03-18T00:31:11.353Z,11.32
2023-03-18T00:33:50.640Z,9.35
2023-03-18T00:36:19.412Z,10.80
2023-03-18T00:38:51.331Z,11.15
2023-03-18T00:41:19.411Z,9.70
2023-03-18T00:43:54.753Z,10.32
2023-03-18T00:46:28.218Z,14.70
2023-03-18T00:48:57.773Z,9.85
2023-03-18T00:51:26.866Z,8.38
2023-03-18T00:54:06.863Z,11.82
2023-03-18T00:56:37.860Z,12.82
2023-03-18T00:59:06.727Z,10.98
2023-03-18T01:01:34.683Z,11.27
2023-03-18T01:04:02.954Z,10.15
2023-03-18T01:06:32.783Z,13.02
2023-03-18T01:09:02.898Z,9.48
2023-03-18T01:11:37.507Z,13.00
2023-03-18T01:14:05.043Z,13.38
2023-03-18T01:16:32.462Z,11.30
2023-03-18T01:19:07.086Z,12.20
2023-03-18T01:21:34.718Z,8.38
2023-03-18T01:24:08.455Z,10.13
2023-03-18T01:26:37.210Z,9.98
2023-03-18T01:29:04.975Z,10.57
2023-03-18T01:31:32.618Z,13.52
2023-03-18T01:34:00.105Z,10.05
2023-03-18T01:36:28.601Z,9.93
2023-03-18T01:38:58.210Z,11.93
2023-03-18T01:41:26.358Z,12.25
2023-03-18T01:43:55.878Z,7.88
2023-03-18T01:46:39.757Z,12.35
2023-03-18T01:49:20.917Z,8.73
2023-03-18T01:52:13.090Z,10.27
2023-03-18T01:54:47.817Z,11.73
2023-03-18T01:57:17.620Z,9.50
2023-03-18T01:59:46.346Z,9.50
2023-03-18T02:02:16.571Z,8.02
2023-03-18T02:04:56.829Z,11.07
2023-03-18T02:07:35.513Z,9.93
2023-03-18T02:10:11.302Z,8.00
2023-03-18T02:12:49.386Z,10.25
2023-03-18T02:15:19.926Z,8.85
2023-03-18T02:17:55.687Z,9.90
2023-03-18T02:20:44.910Z,8.38
2023-03-18T02:23:25.917Z,9.82
2023-03-18T02:26:13.928Z,10.23
2023-03-18T02:28:44.074Z,9.63
2023-03-18T02:31:17.049Z,13.65
2023-03-18T02:33:46.752Z,10.88
2023-03-18T02:36:25.610Z,8.30
2023-03-18T02:38:52.738Z,7.13
2023-03-18T02:41:23.922Z,8.85
2023-03-18T02:43:53.403Z,11.65
2023-03-18T02:46:35.868Z,6.60
2023-03-18T02:49:08.126Z,8.75
2023-03-18T02:51:37.325Z,11.27
2023-03-18T02:54:15.799Z,12.32
2023-03-18T02:56:43.852Z,10.23
2023-03-18T02:59:13.380Z,11.38
2023-03-18T03:01:43.432Z,7.80
2023-03-18T03:04:10.856Z,10.20
2023-03-18T03:06:38.573Z,11.50
2023-03-18T03:09:08.024Z,10.82
2023-03-18T03:11:36.620Z,12.05
2023-03-18T03:14:04.235Z,10.43
2023-03-18T03:16:32.056Z,7.38
2023-03-18T03:18:59.390Z,12.40
2023-03-18T03:21:28.120Z,8.63
2023-03-18T03:23:55.561Z,9.57
2023-03-18T03:26:23.071Z,8.55
2023-03-18T03:28:50.425Z,11.25
2023-03-18T03:31:18.397Z,12.35
2023-03-18T03:33:45.903Z,13.05
2023-03-18T03:36:17.276Z,12.30
2023-03-18T03:38:46.267Z,14.55
2023-03-18T03:41:14.050Z,16.80
2023-03-18T03:43:43.554Z,15.27
2023-03-18T03:46:11.619Z,15.73
2023-03-18T03:48:39.894Z,12.45
2023-03-18T03:51:12.960Z,18.10
2023-03-18T03:53:42.513Z,15.55
2023-03-18T03:56:11.664Z,17.00
2023-03-18T03:58:38.782Z,11.50
2023-03-18T04:01:08.880Z,13.00
2023-03-18T04:03:36.340Z,11.32
2023-03-18T04:06:04.816Z,12.50
2023-03-18T04:08:31.897Z,9.90
2023-03-18T04:10:59.649Z,15.40
2023-03-18T04:13:26.676Z,19.90
2023-03-18T04:15:55.083Z,13.95
2023-03-18T04:18:22.631Z,19.05
2023-03-18T04:20:50.116Z,16.20
2023-03-18T04:23:17.699Z,18.60
2023-03-18T04:25:45.308Z,12.57
2023-03-18T04:28:12.415Z,18.85
2023-03-18T04:30:40.248Z,15.05
2023-03-18T04:33:07.456Z,16.27
2023-03-18T04:35:36.793Z,13.57
2023-03-18T04:38:04.868Z,14.73
2023-03-18T04:40:33.175Z,13.45
2023-03-18T04:43:00.978Z,16.45
2023-03-18T04:45:30.650Z,12.13
2023-03-18T04:47:58.812Z,16.40
2023-03-18T04:50:26.338Z,13.50
2023-03-18T04:52:53.741Z,18.52
2023-03-18T04:55:21.620Z,14.50
2023-03-18T04:57:50.773Z,19.20
2023-03-18T05:00:23.949Z,14.20
2023-03-18T05:02:51.549Z,11.93
2023-03-18T05:05:18.875Z,13.55
2023-03-18T05:07:46.047Z,9.30
2023-03-18T05:10:13.861Z,14.77
2023-03-18T05:12:48.978Z,12.40
2023-03-18T05:15:18.572Z,11.40
2023-03-18T05:17:46.110Z,12.38
2023-03-18T05:20:14.949Z,15.63
2023-03-18T05:22:42.691Z,10.60
2023-03-18T05:25:11.787Z,9.07
2023-03-18T05:27:39.341Z,12.82
2023-03-18T05:30:09.518Z,12.60
2023-03-18T05:32:36.991Z,6.85
2023-03-18T05:35:06.136Z,12.07
2023-03-18T05:37:33.739Z,8.90
2023-03-18T05:40:02.200Z,6.60
2023-03-18T05:42:31.259Z,12.68
2023-03-18T05:44:58.648Z,13.63
2023-03-18T05:47:26.208Z,8.93
2023-03-18T05:49:54.782Z,7.85
2023-03-18T05:52:23.993Z,9.23
2023-03-18T05:54:51.518Z,10.80
2023-03-18T05:57:19.340Z,6.68
2023-03-18T05:59:46.928Z,10.50
2023-03-18T06:02:16.544Z,12.50
2023-03-18T06:04:46.382Z,8.65
2023-03-18T06:07:13.760Z,7.82
2023-03-18T06:09:41.986Z,8.68
2023-03-18T06:12:09.382Z,9.65
2023-03-18T06:14:37.568Z,9.60
2023-03-18T06:17:04.970Z,10.25
2023-03-18T06:19:34.565Z,8.20
2023-03-18T06:22:01.863Z,8.88
2023-03-18T06:24:29.129Z,7.78
2023-03-18T06:26:57.644Z,9.15
2023-03-18T06:29:26.859Z,9.60
2023-03-18T06:31:55.198Z,9.55
2023-03-18T06:34:22.697Z,11.85
2023-03-18T06:36:50.239Z,6.43
2023-03-18T06:39:18.214Z,8.20
2023-03-18T06:41:46.043Z,9.60
2023-03-18T06:44:13.552Z,8.88
2023-03-18T06:46:43.709Z,9.35
2023-03-18T06:49:11.748Z,9.73
2023-03-18T06:51:39.995Z,8.13
2023-03-18T06:54:07.636Z,8.52
2023-03-18T06:56:40.372Z,13.00
2023-03-18T06:59:08.453Z,9.87
2023-03-18T07:01:37.369Z,10.48
2023-03-18T07:04:07.200Z,9.90
2023-03-18T07:06:34.293Z,7.30
2023-03-18T07:09:01.553Z,8.48
2023-03-18T07:11:28.931Z,11.52
2023-03-18T07:13:56.530Z,8.77
2023-03-18T07:16:30.922Z,11.63
2023-03-18T07:18:59.662Z,10.48
2023-03-18T07:21:33.204Z,10.63
2023-03-18T07:26:30.348Z,9.60
2023-03-18T07:28:58.445Z,6.45
2023-03-18T07:31:25.906Z,7.25
2023-03-18T07:33:53.405Z,11.02
2023-03-18T07:36:21.032Z,9.88
2023-03-18T07:38:48.411Z,7.70
2023-03-18T07:41:15.974Z,7.88
2023-03-18T07:43:43.903Z,8.18
2023-03-18T07:46:14.371Z,7.95
2023-03-18T07:48:42.726Z,8.18
2023-03-18T07:51:10.241Z,10.10
2023-03-18T07:53:38.525Z,10.68
2023-03-18T07:56:06.455Z,6.90
2023-03-18T07:58:34.430Z,7.68
2023-03-18T08:01:02.824Z,7.93
2023-03-18T08:03:30.102Z,8.95
2023-03-18T08:05:57.714Z,10.05
2023-03-18T08:08:25.156Z,7.70
2023-03-18T08:10:57.717Z,9.02
2023-03-18T08:13:26.118Z,8.93
2023-03-18T08:15:56.494Z,9.82
2023-03-18T08:18:24.289Z,9.02
2023-03-18T08:20:53.326Z,3.72
2023-03-18T08:23:21.455Z,5.78
2023-03-18T08:25:51.230Z,7.18
2023-03-18T08:28:19.276Z,5.57
2023-03-18T08:30:47.192Z,11.38
2023-03-18T08:33:14.480Z,8.18
2023-03-18T08:35:43.060Z,6.80
2023-03-18T08:38:10.747Z,8.02
2023-03-18T08:40:41.517Z,5.55
2023-03-18T08:43:09.472Z,5.78
2023-03-18T08:45:54.175Z,8.17
2023-03-18T08:48:23.518Z,6.20
2023-03-18T08:50:50.918Z,3.72
2023-03-18T08:53:20.340Z,5.57
2023-03-18T08:55:48.835Z,5.85
2023-03-18T08:58:17.618Z,4.95
2023-03-18T09:00:45.061Z,6.28
2023-03-18T09:03:13.301Z,7.10
2023-03-18T09:05:40.660Z,10.35
2023-03-18T09:08:07.984Z,4.13
2023-03-18T09:10:36.017Z,4.55
2023-03-18T09:13:03.692Z,4.40
2023-03-18T09:15:31.976Z,6.43
2023-03-18T09:18:11.126Z,8.38
2023-03-18T09:20:41.163Z,6.03
2023-03-18T09:23:10.092Z,5.20
2023-03-18T09:25:37.644Z,4.90
2023-03-18T09:28:06.255Z,6.25
2023-03-18T09:30:34.076Z,4.93
2023-03-18T09:33:09.613Z,5.38
2023-03-18T09:35:38.103Z,3.97
2023-03-18T09:38:05.799Z,3.90
2023-03-18T09:40:40.602Z,3.75
2023-03-18T09:43:20.926Z,5.18
2023-03-18T09:46:07.057Z,4.13
2023-03-18T09:48:40.791Z,7.88
2023-03-18T09:53:53.624Z,5.30
2023-03-18T09:56:35.168Z,5.00
2023-03-18T09:59:21.888Z,4.63
2023-03-18T10:01:55.847Z,4.45
2023-03-18T10:04:28.125Z,4.60
2023-03-18T10:07:04.348Z,4.20
2023-03-18T10:09:40.590Z,4.07
2023-03-18T10:12:21.411Z,6.03
2023-03-18T10:15:04.718Z,4.68
2023-03-18T10:17:39.177Z,4.78
2023-03-18T10:20:17.977Z,7.03
2023-03-18T10:23:01.240Z,5.55
2023-03-18T10:25:55.084Z,3.92
2023-03-18T10:28:56.678Z,6.07
2023-03-18T10:32:00.234Z,3.30
2023-03-18T10:34:54.391Z,5.18
2023-03-18T10:38:07.000Z,4.95
2023-03-18T10:40:41.554Z,4.50
2023-03-18T10:43:28.560Z,5.28
2023-03-18T10:46:07.652Z,10.00
2023-03-18T10:48:41.230Z,5.30
2023-03-18T10:51:33.948Z,6.38
2023-03-18T10:54:16.179Z,5.57
2023-03-18T10:56:43.762Z,4.18
2023-03-18T10:59:16.572Z,9.23
2023-03-18T11:01:48.527Z,4.57
2023-03-18T11:04:24.010Z,5.00
2023-03-18T11:07:03.987Z,3.58
2023-03-18T11:09:34.345Z,5.78
2023-03-18T11:12:07.158Z,5.78
2023-03-18T11:14:38.437Z,5.90
2023-03-18T11:17:19.994Z,5.22
2023-03-18T11:19:49.626Z,4.80
2023-03-18T11:22:28.360Z,5.85
2023-03-18T11:25:13.379Z,5.63
2023-03-18T11:27:46.648Z,7.00
2023-03-18T11:30:34.876Z,5.43
2023-03-18T11:33:12.671Z,4.93
2023-03-18T11:35:46.425Z,8.18
2023-03-18T11:40:49.572Z,5.15
2023-03-18T11:43:20.946Z,8.05
2023-03-18T11:45:51.567Z,6.30
2023-03-18T11:48:39.642Z,5.53
2023-03-18T11:51:28.973Z,7.18
2023-03-18T11:54:14.515Z,5.65
2023-03-18T11:56:47.260Z,7.35
2023-03-18T11:59:25.818Z,5.85
2023-03-18T12:01:57.977Z,6.28
2023-03-18T12:04:53.974Z,8.50
2023-03-18T12:07:38.194Z,5.45
2023-03-18T12:10:24.980Z,6.00
2023-03-18T12:13:29.962Z,6.85
2023-03-18T12:16:19.107Z,4.13
2023-03-18T12:19:20.208Z,5.55
2023-03-18T12:21:53.114Z,3.50
2023-03-18T12:24:40.382Z,4.43
2023-03-18T12:27:32.791Z,5.57
2023-03-18T12:30:12.979Z,7.75
2023-03-18T12:33:18.586Z,4.20
2023-03-18T12:36:03.438Z,4.18
2023-03-18T12:38:54.945Z,10.63
2023-03-18T12:41:28.276Z,5.30
2023-03-18T12:44:15.845Z,11.02
2023-03-18T12:47:09.775Z,5.28
2023-03-18T12:49:45.470Z,6.43
2023-03-18T12:52:24.931Z,6.38
2023-03-18T12:55:07.938Z,7.28
2023-03-18T12:57:44.546Z,6.32
2023-03-18T13:00:28.324Z,5.53
2023-03-18T13:03:07.232Z,7.35
2023-03-18T13:05:59.198Z,5.72
2023-03-18T13:08:42.387Z,4.32
2023-03-18T13:11:36.861Z,7.40
2023-03-18T13:14:26.563Z,9.88
2023-03-18T13:16:56.542Z,7.78
2023-03-18T13:19:24.464Z,5.22
2023-03-18T13:22:07.836Z,7.18
2023-03-18T13:25:03.965Z,6.55
2023-03-18T13:28:11.050Z,7.15
2023-03-18T13:31:00.604Z,11.00
2023-03-18T13:33:46.256Z,6.65
2023-03-18T13:36:47.644Z,6.85
2023-03-18T13:39:19.777Z,8.57
2023-03-18T13:42:05.608Z,7.35
2023-03-18T13:44:46.318Z,6.63
2023-03-18T13:47:23.793Z,6.40
2023-03-18T13:50:05.034Z,6.07
2023-03-18T13:52:48.156Z,5.45
2023-03-18T13:55:47.695Z,7.67
2023-03-18T13:58:30.669Z,7.63
2023-03-18T14:01:21.216Z,6.72
2023-03-18T14:03:51.869Z,6.55
2023-03-18T14:06:36.055Z,7.35
2023-03-18T14:09:33.232Z,11.10
2023-03-18T14:12:39.233Z,10.63
2023-03-18T14:15:09.626Z,6.38
2023-03-18T14:17:58.785Z,5.80
2023-03-18T14:20:45.253Z,6.28
2023-03-18T14:23:37.574Z,7.28
2023-03-18T14:26:22.292Z,8.43
2023-03-18T14:29:15.820Z,6.22
2023-03-18T14:31:43.532Z,6.22
2023-03-18T14:34:20.080Z,6.07
2023-03-18T14:36:53.104Z,6.05
2023-03-18T14:39:31.808Z,6.30
2023-03-18T14:42:02.938Z,7.47
2023-03-18T14:44:54.976Z,7.72
2023-03-18T14:47:40.682Z,7.32
2023-03-18T14:50:22.457Z,6.43
2023-03-18T14:53:12.782Z,5.43
2023-03-18T14:55:40.675Z,5.85
2023-03-18T14:58:18.763Z,9.02
2023-03-18T15:00:52.761Z,10.40
2023-03-18T15:03:25.157Z,8.00
2023-03-18T15:05:58.412Z,7.03
2023-03-18T15:08:44.613Z,8.48
2023-03-18T15:11:20.754Z,6.40
2023-03-18T15:13:48.234Z,7.20
2023-03-18T15:16:20.375Z,7.35
2023-03-18T15:18:54.074Z,7.90
2023-03-18T15:21:26.184Z,6.93
2023-03-18T15:23:57.824Z,9.68
2023-03-18T15:26:31.547Z,8.13
2023-03-18T15:31:32.740Z,7.63
2023-03-18T15:34:21.189Z,7.22
2023-03-18T15:36:57.388Z,7.53
2023-03-18T15:39:41.299Z,8.20
2023-03-18T15:42:17.832Z,5.90
2023-03-18T15:44:58.790Z,5.57
2023-03-18T15:47:32.529Z,6.22
2023-03-18T15:52:34.505Z,8.20
2023-03-18T15:55:02.182Z,6.18
2023-03-18T15:57:43.829Z,7.55
2023-03-18T16:00:13.647Z,8.85
2023-03-18T16:02:42.166Z,8.60
2023-03-18T16:05:19.662Z,7.35
2023-03-18T16:07:48.379Z,8.23
2023-03-18T16:10:20.541Z,8.20
2023-03-18T16:12:55.869Z,7.68
2023-03-18T16:15:26.318Z,7.07
2023-03-18T16:17:55.530Z,11.32
2023-03-18T16:20:26.423Z,10.32
2023-03-18T16:22:54.474Z,8.93
2023-03-18T16:25:24.422Z,8.32
2023-03-18T16:27:54.837Z,9.27
2023-03-18T16:30:31.354Z,8.35
2023-03-18T16:32:59.474Z,8.45
2023-03-18T16:35:33.092Z,7.50
2023-03-18T16:40:32.371Z,8.75
2023-03-18T16:43:02.864Z,5.45
2023-03-18T16:45:34.487Z,7.65
2023-03-18T16:48:07.670Z,11.73
2023-03-18T16:50:38.568Z,9.48
2023-03-18T16:53:18.639Z,8.45
2023-03-18T16:55:48.630Z,8.07
2023-03-18T16:58:23.153Z,9.20
2023-03-18T17:00:51.759Z,9.02
2023-03-18T17:03:20.021Z,9.93
2023-03-18T17:05:52.437Z,10.68
2023-03-18T17:08:22.386Z,11.23
2023-03-18T17:10:53.881Z,9.98
2023-03-18T17:13:26.498Z,12.43
2023-03-18T17:15:54.268Z,15.32
2023-03-18T17:18:23.986Z,12.38
2023-03-18T17:20:57.922Z,12.93
2023-03-18T17:23:29.071Z,13.95
2023-03-18T17:26:01.166Z,17.55
2023-03-18T17:28:39.323Z,14.73
2023-03-18T17:31:08.256Z,14.73
2023-03-18T17:33:37.559Z,17.80
2023-03-18T17:36:07.140Z,14.50
2023-03-18T17:38:37.873Z,13.73
2023-03-18T17:41:13.435Z,15.00
2023-03-18T17:43:42.746Z,11.75
2023-03-18T17:46:11.742Z,14.88
2023-03-18T17:48:41.907Z,12.63
2023-03-18T17:51:21.571Z,15.02
2023-03-18T17:53:52.060Z,14.27
2023-03-18T17:56:20.876Z,15.85
2023-03-18T17:58:52.262Z,18.00
2023-03-18T18:01:29.960Z,17.38
2023-03-18T18:04:00.229Z,19.25
2023-03-18T18:06:29.943Z,21.17
2023-03-18T18:09:09.584Z,18.50
2023-03-18T18:11:44.545Z,20.00
2023-03-18T18:14:26.048Z,18.33
2023-03-18T18:16:56.948Z,19.48
2023-03-18T18:19:25.216Z,17.00
2023-03-18T18:22:03.510Z,17.85
2023-03-18T18:24:34.231Z,19.17
2023-03-18T18:27:03.672Z,19.00
2023-03-18T18:29:35.082Z,15.68
2023-03-18T18:32:03.145Z,16.75
2023-03-18T18:34:33.619Z,15.52
2023-03-18T18:37:03.724Z,15.95
2023-03-18T18:39:31.849Z,16.90
2023-03-18T18:42:00.465Z,18.17
2023-03-18T18:44:29.338Z,16.98
2023-03-18T18:46:58.169Z,16.92
2023-03-18T18:49:27.106Z,13.27
2023-03-18T18:51:57.393Z,16.38
2023-03-18T18:54:26.276Z,17.88
2023-03-18T18:56:55.785Z,12.45
2023-03-18T18:59:29.334Z,16.88
2023-03-18T19:01:57.924Z,13.68
2023-03-18T19:04:27.799Z,14.27
2023-03-18T19:06:56.557Z,13.75
2023-03-18T19:09:31.162Z,15.63
2023-03-18T19:12:00.710Z,14.85
2023-03-18T19:14:30.364Z,17.63
2023-03-18T19:17:00.757Z,14.48
2023-03-18T19:19:34.332Z,13.60
2023-03-18T19:22:04.963Z,13.77
2023-03-18T19:24:40.471Z,14.68
2023-03-18T19:27:27.586Z,15.98
2023-03-18T19:30:06.040Z,12.77
2023-03-18T19:32:35.526Z,12.60
2023-03-18T19:35:03.744Z,12.88
2023-03-18T19:37:33.309Z,11.25
2023-03-18T19:40:07.672Z,13.15
2023-03-18T19:42:36.879Z,14.40
2023-03-18T19:45:07.569Z,12.82
2023-03-18T19:47:36.973Z,13.25
2023-03-18T19:50:19.173Z,15.70
2023-03-18T19:52:48.579Z,12.43
2023-03-18T19:55:17.752Z,13.07
2023-03-18T19:57:51.611Z,13.27
2023-03-18T20:00:26.002Z,15.25
2023-03-18T20:02:54.201Z,12.88
2023-03-18T20:05:25.512Z,14.70
2023-03-18T20:07:53.841Z,14.60
2023-03-18T20:10:26.824Z,15.07
2023-03-18T20:12:54.646Z,16.20
2023-03-18T20:15:29.081Z,14.13
2023-03-18T20:18:04.626Z,12.82
2023-03-18T20:20:39.673Z,13.35
2023-03-18T20:23:13.404Z,14.10
2023-03-18T20:28:23.833Z,13.45
2023-03-18T20:30:56.872Z,15.27
2023-03-18T20:33:25.173Z,16.08
2023-03-18T20:35:56.922Z,15.93
2023-03-18T20:38:38.340Z,11.95
2023-03-18T20:41:18.477Z,14.02
2023-03-18T20:43:50.761Z,16.40
2023-03-18T20:46:23.839Z,14.63
2023-03-18T20:48:59.501Z,14.45
2023-03-18T20:51:35.181Z,17.42
2023-03-18T20:54:39.370Z,17.80
2023-03-18T20:57:12.182Z,17.25
2023-03-18T20:59:40.672Z,15.93
2023-03-18T21:02:36.825Z,16.55
2023-03-18T21:05:19.289Z,13.88
2023-03-18T21:07:50.165Z,18.38
2023-03-18T21:10:26.372Z,17.05
2023-03-18T21:12:55.338Z,15.45
2023-03-18T21:15:26.899Z,16.27
2023-03-18T21:17:55.579Z,17.40
2023-03-18T21:20:40.308Z,15.52
2023-03-18T21:23:29.206Z,15.63
2023-03-18T21:25:58.184Z,18.73
2023-03-18T21:28:31.829Z,14.98
2023-03-18T21:31:03.088Z,19.25
2023-03-18T21:33:33.697Z,17.80
2023-03-18T21:36:02.585Z,18.75
2023-03-18T21:38:31.962Z,15.95
2023-03-18T21:41:02.765Z,15.10
2023-03-18T21:43:34.476Z,15.82
2023-03-18T21:46:04.393Z,14.93
2023-03-18T21:48:32.700Z,15.40
2023-03-18T21:51:00.410Z,16.92
2023-03-18T21:53:28.963Z,16.27
2023-03-18T21:55:56.614Z,19.05
2023-03-18T21:58:28.615Z,15.93
2023-03-18T22:01:01.494Z,16.25
2023-03-18T22:03:35.028Z,16.58
2023-03-18T22:06:14.055Z,22.00
2023-03-18T22:08:42.316Z,20.23
2023-03-18T22:11:18.747Z,19.77
2023-03-18T22:13:47.888Z,18.40
2023-03-18T22:16:16.856Z,18.92
2023-03-18T22:18:47.595Z,19.45
2023-03-18T22:21:23.669Z,20.75
2023-03-18T22:23:52.090Z,21.17
2023-03-18T22:26:20.386Z,23.67
2023-03-18T22:28:50.930Z,24.50
2023-03-18T22:31:26.308Z,19.13
2023-03-18T22:33:54.397Z,19.73
2023-03-18T22:36:22.212Z,15.45
2023-03-18T22:38:50.257Z,15.32
2023-03-18T22:41:24.645Z,16.95
2023-03-18T22:43:52.450Z,16.13
2023-03-18T22:46:20.214Z,17.40
2023-03-18T22:48:53.728Z,18.80
2023-03-18T22:51:27.756Z,17.08
2023-03-18T22:53:55.638Z,16.67
2023-03-18T22:56:24.218Z,14.52
2023-03-18T22:58:52.173Z,16.17
2023-03-18T23:01:23.326Z,16.25
2023-03-18T23:03:56.898Z,15.40
2023-03-18T23:06:27.499Z,17.83
2023-03-18T23:08:54.795Z,16.30
2023-03-18T23:11:22.240Z,15.52
2023-03-18T23:13:52.442Z,15.90
2023-03-18T23:16:22.405Z,18.58
2023-03-18T23:18:50.858Z,14.88
2023-03-18T23:21:22.144Z,16.63
2023-03-18T23:23:49.838Z,14.40
2023-03-18T23:26:17.621Z,16.20
2023-03-18T23:28:46.213Z,15.60
2023-03-18T23:31:16.878Z,15.18
2023-03-18T23:33:45.482Z,13.73
2023-03-18T23:36:13.285Z,13.77
2023-03-18T23:38:41.025Z,15.05
2023-03-18T23:41:08.628Z,14.25
2023-03-18T23:43:35.983Z,14.02
2023-03-18T23:46:04.107Z,14.05
2023-03-18T23:48:31.870Z,16.42
2023-03-18T23:50:59.189Z,13.35
2023-03-18T23:53:26.528Z,16.02
2023-03-18T23:55:53.771Z,17.77
2023-03-18T23:58:21.344Z,15.80
